Kenosha Regional Airport
KENW : now visible

Airfield :











YOU CAN JOIN US ON...

 
LOGIN :

Register | Disclaimer

   EN    FR    IT 

 









Legend :    VFR   Marginal VFR   IFR   Intensive IFR   Very Intensive IFR
Visi :
Ceiling :
>= 8 km
>= 3000ft
5 to 8 km
1000 to 3000 ft
1500m to 5 km
500 to 1000 ft
800 to 1500m
200 to 500 ft
< 800m
< 200 ft
Symbols :   Thunderstorms  Fog  Heavy snow  Heavy precipitations  Wind > 20 kt






- Airport Elevation : 742 ft


KENW - Kenosha Regional

CURRENT METAR :
  • 142053Z 30013G19KT 4SM HZ OVC017 M02/M05 A2973 RMK AO2 SLP077 T10221050 53012

EXPIRED METARs :
  • 142044Z 30013G21KT 4SM HZ OVC017 M02/M05 A2973 RMK AO2 T10221050
  • 141953Z 30012KT 4SM BR OVC013 M02/M04 A2971 RMK AO2 SLP071 T10171039
  • 141853Z 31010KT 4SM BR OVC006 M01/M02 A2970 RMK AO2 SLP064 T10111022

TAF KENW
Valid from the 14 at 20:00 until the 15 at 18:00 UTC


141958Z 1420/1518 31012KT 4SM BR OVC013
FM142200 30011KT P6SM OVC014
FM150100 30010KT P6SM BKN024
FM150500 30009KT P6SM BKN045
FM151100 30008KT P6SM FEW250



MET'MAP, your aeronautical weather chart ! - Copyright ORBIFLY December 2007 - Disclaimer

ORBIFLY MET'MAP TEAM :

Programming & Development : Alexandra Zaïnal
Concept & original design : Baudouin d'Aumeries
Assistance for programming : Marc-Olivier Méhu
Technical & hardware support : Manuel Goepfert

Contact : metmap@orbifly.com




SOURCES & CREDITS :

   NOAA       Earth
Advisory